North Utica, Illinois
Current Conditions -  °F | °C
As of 10:15 PM on Wednesday 26 Nov 2014 (Local Time) from KVYS Reporting Station
Overcast Overcast  
Wind Chill: 15°   Ceiling: 2600
Heat Index: 25°   Visibility: 10mi
Dew Point: 20°   Wind: 9mph
Humidity: 83%   Direction: 310°NW
Pressure: 30.22"   Gusts: NA
Location:  41.3954°N, 88.9927°W
Report Text: KVYS 270415Z AUTO 31008KT 10SM OVC026 M04/M06 A3022 RMK AO2 T10401065
Loading
Personal Weather Stations






























Interactive Weather Map New forecast layout! Learn more

10-Day Weather Forecast

Advertisements
Track Severe Weather on mobile